createdAt,value
2022-11-13T00:01:29.356Z,22.92
2022-11-13T00:04:00.708Z,19.80
2022-11-13T00:06:29.811Z,23.98
2022-11-13T00:08:58.928Z,20.80
2022-11-13T00:11:28.012Z,24.23
2022-11-13T00:13:57.119Z,22.25
2022-11-13T00:16:26.188Z,27.30
2022-11-13T00:18:55.835Z,22.77
2022-11-13T00:21:30.294Z,24.65
2022-11-13T00:23:59.445Z,25.77
2022-11-13T00:26:32.202Z,28.70
2022-11-13T00:29:03.904Z,25.58
2022-11-13T00:31:33.142Z,21.85
2022-11-13T00:36:52.177Z,17.40
2022-11-13T00:39:21.828Z,13.85
2022-11-13T00:41:50.977Z,16.52
2022-11-13T00:44:20.358Z,13.68
2022-11-13T00:46:49.721Z,13.63
2022-11-13T00:49:18.865Z,16.77
2022-11-13T00:51:48.125Z,17.85
2022-11-13T00:54:17.286Z,16.17
2022-11-13T00:56:46.379Z,15.43
2022-11-13T00:59:15.448Z,14.25
2022-11-13T01:01:44.671Z,13.80
2022-11-13T01:04:13.865Z,16.55
2022-11-13T01:06:43.076Z,14.15
2022-11-13T01:09:12.284Z,20.35
2022-11-13T01:11:42.535Z,28.05
2022-11-13T01:14:11.856Z,14.95
2022-11-13T01:16:41.013Z,20.40
2022-11-13T01:19:10.262Z,22.88
2022-11-13T01:21:39.505Z,15.20
2022-11-13T01:24:08.773Z,15.60
2022-11-13T01:26:37.899Z,21.10
2022-11-13T01:29:11.448Z,20.63
2022-11-13T01:31:40.915Z,9.07
2022-11-13T01:34:10.391Z,20.63
2022-11-13T01:36:39.849Z,20.88
2022-11-13T01:39:11.758Z,12.55
2022-11-13T01:41:41.872Z,13.70
2022-11-13T01:44:17.076Z,15.93
2022-11-13T01:46:58.203Z,13.93
2022-11-13T01:49:39.224Z,10.50
2022-11-13T01:52:40.508Z,14.50
2022-11-13T01:55:20.574Z,16.30
2022-11-13T01:57:49.915Z,13.45
2022-11-13T02:00:19.281Z,20.45
2022-11-13T02:02:48.417Z,14.30
2022-11-13T02:05:17.776Z,19.00
2022-11-13T02:07:47.662Z,12.88
2022-11-13T02:10:17.131Z,15.20
2022-11-13T02:12:52.466Z,18.58
2022-11-13T02:15:26.642Z,17.23
2022-11-13T02:18:02.301Z,16.08
2022-11-13T02:21:01.573Z,12.27
2022-11-13T02:24:04.696Z,20.40
2022-11-13T02:26:35.114Z,8.98
2022-11-13T02:29:04.220Z,11.02
2022-11-13T02:31:33.393Z,18.90
2022-11-13T02:34:04.929Z,13.20
2022-11-13T02:36:35.810Z,12.73
2022-11-13T02:39:11.307Z,13.45
2022-11-13T02:41:40.576Z,11.48
2022-11-13T02:44:10.166Z,14.73
2022-11-13T02:46:39.553Z,9.80
2022-11-13T02:49:08.816Z,9.25
2022-11-13T02:51:37.985Z,9.50
2022-11-13T02:54:07.407Z,9.13
2022-11-13T02:56:36.587Z,8.23
2022-11-13T02:59:05.865Z,13.18
2022-11-13T03:01:35.108Z,15.82
2022-11-13T03:04:04.971Z,17.67
2022-11-13T03:06:34.900Z,8.40
2022-11-13T03:09:04.175Z,13.20
2022-11-13T03:11:33.275Z,8.27
2022-11-13T03:14:02.830Z,15.10
2022-11-13T03:16:32.023Z,11.80
2022-11-13T03:19:01.131Z,9.23
2022-11-13T03:21:30.326Z,11.57
2022-11-13T03:24:00.173Z,11.82
2022-11-13T03:26:29.383Z,11.23
2022-11-13T03:28:58.965Z,5.72
2022-11-13T03:31:28.169Z,6.20
2022-11-13T03:33:57.503Z,5.82
2022-11-13T03:36:27.584Z,7.63
2022-11-13T03:38:56.876Z,7.93
2022-11-13T03:41:26.039Z,5.72
2022-11-13T03:43:55.128Z,10.43
2022-11-13T03:46:24.455Z,11.68
2022-11-13T03:48:55.915Z,5.15
2022-11-13T03:51:25.081Z,6.50
2022-11-13T03:53:54.127Z,7.88
2022-11-13T03:56:23.992Z,15.25
2022-11-13T03:58:53.054Z,10.50
2022-11-13T04:01:22.130Z,13.13
2022-11-13T04:03:51.310Z,8.20
2022-11-13T04:06:20.538Z,7.35
2022-11-13T04:08:49.706Z,7.07
2022-11-13T04:11:18.905Z,8.98
2022-11-13T04:13:47.946Z,8.32
2022-11-13T04:16:17.086Z,10.40
2022-11-13T04:18:46.208Z,17.48
2022-11-13T04:21:15.277Z,12.35
2022-11-13T04:23:44.402Z,12.05
2022-11-13T04:26:13.438Z,9.88
2022-11-13T04:28:42.485Z,10.55
2022-11-13T04:31:11.603Z,13.82
2022-11-13T04:33:40.649Z,5.40
2022-11-13T04:36:10.329Z,4.55
2022-11-13T04:38:39.458Z,11.38
2022-11-13T04:41:27.479Z,3.80
2022-11-13T04:43:56.589Z,6.63
2022-11-13T04:46:25.670Z,7.18
2022-11-13T04:48:54.832Z,10.18
2022-11-13T04:51:24.064Z,9.27
2022-11-13T04:53:53.235Z,9.38
2022-11-13T04:56:24.460Z,8.45
2022-11-13T04:58:54.356Z,7.28
2022-11-13T05:01:23.634Z,6.70
2022-11-13T05:03:52.789Z,7.35
2022-11-13T05:06:23.302Z,9.75
2022-11-13T05:08:53.355Z,9.13
2022-11-13T05:11:22.414Z,6.22
2022-11-13T05:13:51.504Z,9.15
2022-11-13T05:16:20.665Z,3.97
2022-11-13T05:18:50.025Z,11.07
2022-11-13T05:21:19.288Z,20.77
2022-11-13T05:23:48.371Z,26.48
2022-11-13T05:26:18.212Z,15.52
2022-11-13T05:28:47.279Z,17.33
2022-11-13T05:31:17.823Z,13.52
2022-11-13T05:33:46.988Z,10.65
2022-11-13T05:36:19.303Z,10.02
2022-11-13T05:38:48.965Z,9.40
2022-11-13T05:41:22.360Z,12.55
2022-11-13T05:43:56.549Z,10.73
2022-11-13T05:46:30.739Z,14.45
2022-11-13T05:49:02.857Z,13.57
2022-11-13T05:51:36.329Z,9.50
2022-11-13T05:54:07.214Z,10.65
2022-11-13T05:56:38.749Z,14.63
2022-11-13T05:59:08.578Z,6.97
2022-11-13T06:01:42.568Z,8.57
2022-11-13T06:04:12.509Z,7.10
2022-11-13T06:06:41.779Z,7.47
2022-11-13T06:09:15.573Z,7.75
2022-11-13T06:11:45.121Z,10.57
2022-11-13T06:14:14.304Z,6.47
2022-11-13T06:16:43.580Z,9.27
2022-11-13T06:19:13.260Z,8.75
2022-11-13T06:21:43.878Z,9.15
2022-11-13T06:24:14.782Z,6.53
2022-11-13T06:26:44.154Z,8.63
2022-11-13T06:29:14.621Z,9.18
2022-11-13T06:31:44.064Z,9.45
2022-11-13T06:34:13.231Z,5.68
2022-11-13T06:36:43.673Z,3.75
2022-11-13T06:39:14.664Z,6.43
2022-11-13T06:41:43.869Z,8.80
2022-11-13T06:44:13.052Z,6.45
2022-11-13T06:46:42.184Z,7.18
2022-11-13T06:49:11.331Z,6.88
2022-11-13T06:51:40.578Z,6.25
2022-11-13T06:54:09.791Z,3.60
2022-11-13T06:56:44.737Z,4.80
2022-11-13T06:59:14.166Z,4.25
2022-11-13T07:01:43.289Z,6.45
2022-11-13T07:04:15.149Z,6.43
2022-11-13T07:06:44.592Z,6.00
2022-11-13T07:09:13.889Z,8.50
2022-11-13T07:11:43.018Z,4.38
2022-11-13T07:14:14.037Z,6.15
2022-11-13T07:17:08.019Z,6.40
2022-11-13T07:19:34.055Z,7.22
2022-11-13T07:22:03.253Z,7.93
2022-11-13T07:24:32.363Z,6.00
2022-11-13T07:27:01.476Z,12.85
2022-11-13T07:29:30.640Z,8.13
2022-11-13T07:31:59.734Z,5.03
2022-11-13T07:34:28.986Z,11.13
2022-11-13T07:36:58.182Z,5.97
2022-11-13T07:39:27.291Z,6.03
2022-11-13T07:41:56.447Z,6.57
2022-11-13T07:44:52.812Z,13.48
2022-11-13T07:47:14.798Z,6.47
2022-11-13T07:49:44.056Z,9.27
2022-11-13T07:52:13.256Z,9.80
2022-11-13T07:54:42.606Z,4.65
2022-11-13T07:57:11.802Z,3.28
2022-11-13T07:59:41.159Z,4.60
2022-11-13T08:02:19.296Z,13.13
2022-11-13T08:04:50.342Z,15.65
2022-11-13T08:07:19.692Z,5.63
2022-11-13T08:09:48.890Z,10.15
2022-11-13T08:12:18.092Z,7.70
2022-11-13T08:14:47.225Z,5.53
2022-11-13T08:17:16.690Z,9.90
2022-11-13T08:19:45.880Z,7.18
2022-11-13T08:22:15.026Z,5.35
2022-11-13T08:24:44.174Z,10.13
2022-11-13T08:27:13.395Z,9.63
2022-11-13T08:29:42.507Z,4.47
2022-11-13T08:32:11.607Z,6.30
2022-11-13T08:34:40.836Z,8.77
2022-11-13T08:37:11.549Z,6.35
2022-11-13T08:39:40.719Z,13.50
2022-11-13T08:42:09.924Z,5.80
2022-11-13T08:44:39.007Z,5.28
2022-11-13T08:47:08.209Z,4.63
2022-11-13T08:49:37.294Z,4.30
2022-11-13T08:52:06.651Z,8.05
2022-11-13T08:54:35.711Z,5.20
2022-11-13T08:57:06.067Z,11.50
2022-11-13T08:59:35.355Z,8.82
2022-11-13T09:02:04.657Z,13.27
2022-11-13T09:04:36.653Z,8.75
2022-11-13T09:07:05.942Z,10.20
2022-11-13T09:09:35.549Z,5.25
2022-11-13T09:12:05.028Z,6.95
2022-11-13T09:14:34.192Z,8.70
2022-11-13T09:17:03.328Z,12.38
2022-11-13T09:19:32.422Z,6.55
2022-11-13T09:22:01.564Z,5.65
2022-11-13T09:24:30.733Z,9.95
2022-11-13T09:26:59.848Z,6.35
2022-11-13T09:29:29.638Z,5.35
2022-11-13T09:31:58.969Z,4.60
2022-11-13T09:34:28.971Z,7.38
2022-11-13T09:37:00.026Z,14.38
2022-11-13T09:39:29.591Z,7.28
2022-11-13T09:42:19.302Z,5.75
2022-11-13T09:45:20.660Z,5.50
2022-11-13T09:47:53.726Z,18.35
2022-11-13T09:50:30.428Z,9.25
2022-11-13T09:52:59.873Z,10.07
2022-11-13T09:55:43.014Z,11.82
2022-11-13T09:58:53.229Z,9.88
2022-11-13T10:01:38.316Z,9.35
2022-11-13T10:04:15.295Z,10.15
2022-11-13T10:07:01.439Z,6.65
2022-11-13T10:10:17.968Z,8.75
2022-11-13T10:12:53.213Z,12.07
2022-11-13T10:15:22.605Z,18.38
2022-11-13T10:18:18.562Z,12.10
2022-11-13T10:21:17.877Z,9.30
2022-11-13T10:23:58.215Z,9.77
2022-11-13T10:26:30.653Z,8.80
2022-11-13T10:29:15.769Z,8.43
2022-11-13T10:31:52.140Z,7.82
2022-11-13T10:34:22.066Z,12.52
2022-11-13T10:37:19.547Z,17.50
2022-11-13T10:39:49.003Z,10.00
2022-11-13T10:42:30.610Z,17.25
2022-11-13T10:45:04.371Z,16.35
2022-11-13T10:48:02.694Z,15.38
2022-11-13T10:50:31.812Z,10.88
2022-11-13T10:53:01.473Z,7.65
2022-11-13T10:55:39.142Z,14.50
2022-11-13T10:58:20.723Z,11.30
2022-11-13T11:00:50.785Z,11.27
2022-11-13T11:03:26.748Z,7.15
2022-11-13T11:06:03.152Z,15.07
2022-11-13T11:08:36.418Z,15.98
2022-11-13T11:11:35.294Z,13.40
2022-11-13T11:14:13.630Z,16.98
2022-11-13T11:16:43.807Z,13.50
2022-11-13T11:19:16.793Z,10.45
2022-11-13T11:21:48.336Z,23.05
2022-11-13T11:24:29.495Z,15.07
2022-11-13T11:27:27.645Z,11.02
2022-11-13T11:30:08.545Z,12.63
2022-11-13T11:32:52.731Z,19.23
2022-11-13T11:35:34.808Z,10.90
2022-11-13T11:38:23.871Z,9.57
2022-11-13T11:41:04.349Z,10.43
2022-11-13T11:44:03.954Z,12.95
2022-11-13T11:46:33.275Z,10.60
2022-11-13T11:49:04.142Z,18.30
2022-11-13T11:51:55.251Z,17.00
2022-11-13T11:54:47.569Z,23.15
2022-11-13T11:58:19.659Z,16.80
2022-11-13T12:01:38.615Z,19.85
2022-11-13T12:04:46.066Z,20.65
2022-11-13T12:07:48.071Z,14.45
2022-11-13T12:10:30.180Z,15.20
2022-11-13T12:13:21.620Z,18.05
2022-11-13T12:16:25.059Z,15.85
2022-11-13T12:19:05.309Z,17.67
2022-11-13T12:21:55.147Z,15.45
2022-11-13T12:24:38.558Z,17.67
2022-11-13T12:27:33.152Z,12.13
2022-11-13T12:30:18.369Z,13.85
2022-11-13T12:33:17.125Z,10.38
2022-11-13T12:35:52.516Z,12.77
2022-11-13T12:38:38.755Z,13.63
2022-11-13T12:41:29.619Z,14.80
2022-11-13T12:44:30.428Z,10.82
2022-11-13T12:47:03.019Z,13.30
2022-11-13T12:49:36.430Z,13.20
2022-11-13T12:52:25.408Z,10.60
2022-11-13T12:55:30.441Z,15.43
2022-11-13T12:58:23.398Z,12.65
2022-11-13T13:01:22.096Z,13.77
2022-11-13T13:04:21.592Z,11.80
2022-11-13T13:07:12.106Z,11.73
2022-11-13T13:10:24.312Z,14.10
2022-11-13T13:13:40.921Z,11.05
2022-11-13T13:16:11.840Z,17.52
2022-11-13T13:18:42.178Z,11.00
2022-11-13T13:21:18.614Z,11.98
2022-11-13T13:23:54.419Z,16.40
2022-11-13T13:26:31.663Z,15.73
2022-11-13T13:29:27.488Z,12.55
2022-11-13T13:32:00.784Z,18.92
2022-11-13T13:35:23.005Z,13.18
2022-11-13T13:38:33.600Z,14.18
2022-11-13T13:41:36.640Z,14.13
2022-11-13T13:44:39.258Z,12.30
2022-11-13T13:47:25.596Z,15.20
2022-11-13T13:49:56.280Z,13.57
2022-11-13T13:52:34.547Z,12.80
2022-11-13T13:55:08.572Z,14.82
2022-11-13T13:57:43.600Z,14.10
2022-11-13T14:00:15.600Z,11.88
2022-11-13T14:02:53.211Z,14.27
2022-11-13T14:05:39.171Z,13.70
2022-11-13T14:08:24.427Z,14.45
2022-11-13T14:10:54.385Z,13.68
2022-11-13T14:13:30.372Z,17.33
2022-11-13T14:16:06.352Z,14.23
2022-11-13T14:18:37.399Z,17.65
2022-11-13T14:21:26.021Z,15.18
2022-11-13T14:23:58.495Z,15.40
2022-11-13T14:26:27.746Z,17.10
2022-11-13T14:29:09.936Z,14.75
2022-11-13T14:31:39.184Z,13.73
2022-11-13T14:34:19.519Z,12.32
2022-11-13T14:36:50.084Z,12.05
2022-11-13T14:39:36.011Z,13.93
2022-11-13T14:42:05.549Z,11.23
2022-11-13T14:44:36.758Z,17.08
2022-11-13T14:47:23.702Z,14.05
2022-11-13T14:49:52.920Z,11.52
2022-11-13T14:52:30.399Z,15.45
2022-11-13T14:55:15.178Z,16.43
2022-11-13T14:57:51.745Z,14.43
2022-11-13T15:00:30.377Z,10.38
2022-11-13T15:03:01.043Z,16.55
2022-11-13T15:05:30.572Z,12.07
2022-11-13T15:08:00.966Z,15.68
2022-11-13T15:10:32.797Z,11.15
2022-11-13T15:13:02.176Z,18.35
2022-11-13T15:15:31.910Z,11.43
2022-11-13T15:18:03.476Z,17.58
2022-11-13T15:20:33.260Z,13.80
2022-11-13T15:23:03.065Z,11.63
2022-11-13T15:25:32.209Z,14.95
2022-11-13T15:28:01.415Z,12.82
2022-11-13T15:30:30.543Z,20.33
2022-11-13T15:33:00.346Z,15.23
2022-11-13T15:35:29.571Z,14.65
2022-11-13T15:37:59.602Z,14.95
2022-11-13T15:40:28.628Z,15.05
2022-11-13T15:42:59.971Z,17.15
2022-11-13T15:45:29.247Z,13.00
2022-11-13T15:47:58.324Z,12.38
2022-11-13T15:50:27.485Z,18.05
2022-11-13T15:53:00.988Z,16.00
2022-11-13T15:55:34.540Z,13.85
2022-11-13T15:58:04.691Z,17.42
2022-11-13T16:00:34.678Z,12.57
2022-11-13T16:03:05.591Z,14.73
2022-11-13T16:05:36.764Z,14.80
2022-11-13T16:08:17.133Z,12.82
2022-11-13T16:10:46.228Z,17.33
2022-11-13T16:13:15.284Z,10.20
2022-11-13T16:15:44.601Z,15.00
2022-11-13T16:18:27.631Z,14.20
2022-11-13T16:20:56.989Z,15.27
2022-11-13T16:23:27.060Z,12.18
2022-11-13T16:25:56.548Z,12.88
2022-11-13T16:28:26.839Z,12.60
2022-11-13T16:30:56.320Z,17.92
2022-11-13T16:33:25.431Z,13.38
2022-11-13T16:35:55.944Z,11.13
2022-11-13T16:38:25.013Z,13.30
2022-11-13T16:40:54.062Z,18.67
2022-11-13T16:43:23.165Z,16.30
2022-11-13T16:45:54.285Z,13.90
2022-11-13T16:48:23.345Z,16.95
2022-11-13T16:50:52.405Z,13.25
2022-11-13T16:53:22.724Z,12.93
2022-11-13T16:55:51.730Z,13.27
2022-11-13T16:58:20.948Z,9.93
2022-11-13T17:00:49.967Z,11.55
2022-11-13T17:03:19.020Z,13.27
2022-11-13T17:05:52.256Z,16.38
2022-11-13T17:08:22.883Z,12.05
2022-11-13T17:11:01.275Z,13.35
2022-11-13T17:16:03.050Z,14.85
2022-11-13T17:18:32.150Z,10.18
2022-11-13T17:21:02.078Z,11.25
2022-11-13T17:23:31.353Z,13.55
2022-11-13T17:26:00.645Z,11.55
2022-11-13T17:28:30.034Z,14.63
2022-11-13T17:31:12.972Z,16.00
2022-11-13T17:33:43.638Z,11.05
2022-11-13T17:36:13.080Z,13.40
2022-11-13T17:38:42.281Z,11.38
2022-11-13T17:41:14.504Z,11.52
2022-11-13T17:43:44.293Z,10.30
2022-11-13T17:46:17.703Z,11.65
2022-11-13T17:48:48.987Z,11.10
2022-11-13T17:51:19.167Z,12.40
2022-11-13T17:53:48.275Z,12.63
2022-11-13T17:56:17.344Z,10.57
2022-11-13T17:58:47.662Z,7.65
2022-11-13T18:01:22.616Z,11.05
2022-11-13T18:03:57.785Z,12.85
2022-11-13T18:06:27.512Z,13.35
2022-11-13T18:08:56.741Z,9.07
2022-11-13T18:11:31.483Z,16.65
2022-11-13T18:14:00.622Z,8.88
2022-11-13T18:16:38.387Z,10.57
2022-11-13T18:19:10.203Z,14.05
2022-11-13T18:21:40.743Z,11.43
2022-11-13T18:24:18.416Z,11.95
2022-11-13T18:26:48.068Z,11.23
2022-11-13T18:29:17.206Z,8.65
2022-11-13T18:31:46.503Z,10.85
2022-11-13T18:34:18.351Z,8.63
2022-11-13T18:36:48.288Z,9.88
2022-11-13T18:39:17.539Z,11.57
2022-11-13T18:41:46.683Z,11.93
2022-11-13T18:44:15.915Z,9.50
2022-11-13T18:46:45.202Z,9.60
2022-11-13T18:49:14.333Z,9.52
2022-11-13T18:51:44.831Z,9.68
2022-11-13T18:54:14.162Z,9.40
2022-11-13T18:56:43.879Z,14.48
2022-11-13T18:59:13.085Z,14.35
2022-11-13T19:01:43.135Z,15.20
2022-11-13T19:04:28.159Z,13.43
2022-11-13T19:06:58.268Z,17.60
2022-11-13T19:09:27.702Z,17.25
2022-11-13T19:11:56.909Z,14.32
2022-11-13T19:14:26.037Z,21.80
2022-11-13T19:16:55.162Z,19.85
2022-11-13T19:19:25.409Z,19.92
2022-11-13T19:21:54.607Z,17.90
2022-11-13T19:24:23.797Z,14.48
2022-11-13T19:26:53.021Z,18.75
2022-11-13T19:29:22.267Z,18.77
2022-11-13T19:31:54.602Z,19.85
2022-11-13T19:34:23.780Z,15.95
2022-11-13T19:36:55.368Z,22.15
2022-11-13T19:39:24.811Z,15.63
2022-11-13T19:41:54.020Z,17.17
2022-11-13T19:44:23.290Z,22.20
2022-11-13T19:46:52.493Z,20.25
2022-11-13T19:49:21.714Z,15.63
2022-11-13T19:51:51.030Z,15.35
2022-11-13T19:54:20.235Z,12.02
2022-11-13T19:56:49.520Z,12.45
2022-11-13T19:59:18.722Z,19.40
2022-11-13T20:01:47.940Z,17.27
2022-11-13T20:04:17.132Z,15.00
2022-11-13T20:06:46.324Z,14.10
2022-11-13T20:09:15.503Z,12.38
2022-11-13T20:11:46.079Z,12.32
2022-11-13T20:14:15.546Z,9.48
2022-11-13T20:16:44.694Z,10.05
2022-11-13T20:19:13.815Z,12.07
2022-11-13T20:21:43.013Z,11.77
2022-11-13T20:24:12.495Z,13.73
2022-11-13T20:26:41.617Z,12.07
2022-11-13T20:29:10.765Z,12.30
2022-11-13T20:31:39.917Z,9.95
2022-11-13T20:34:09.988Z,10.45
2022-11-13T20:36:40.028Z,13.75
2022-11-13T20:39:10.579Z,13.35
2022-11-13T20:41:39.813Z,13.95
2022-11-13T20:44:09.046Z,19.45
2022-11-13T20:46:38.280Z,15.32
2022-11-13T20:49:07.459Z,16.73
2022-11-13T20:51:36.696Z,19.55
2022-11-13T20:54:06.034Z,19.38
2022-11-13T20:56:35.201Z,19.10
2022-11-13T20:59:05.047Z,15.25
2022-11-13T21:01:37.527Z,19.27
2022-11-13T21:04:06.879Z,17.38
2022-11-13T21:06:36.053Z,16.75
2022-11-13T21:09:06.561Z,16.58
2022-11-13T21:11:35.808Z,12.82
2022-11-13T21:14:05.115Z,16.42
2022-11-13T21:16:34.320Z,13.68
2022-11-13T21:19:03.515Z,13.43
2022-11-13T21:21:32.780Z,12.70
2022-11-13T21:24:02.002Z,15.57
2022-11-13T21:26:31.201Z,13.90
2022-11-13T21:29:03.945Z,13.73
2022-11-13T21:31:33.096Z,17.38
2022-11-13T21:34:02.264Z,13.57
2022-11-13T21:36:31.578Z,12.75
2022-11-13T21:39:01.206Z,11.57
2022-11-13T21:41:30.268Z,16.63
2022-11-13T21:44:05.906Z,18.42
2022-11-13T21:46:40.173Z,13.73
2022-11-13T21:49:13.203Z,13.35
2022-11-13T21:51:44.372Z,16.65
2022-11-13T21:54:13.523Z,14.00
2022-11-13T21:56:43.147Z,11.27
2022-11-13T21:59:12.265Z,17.05
2022-11-13T22:01:41.395Z,10.68
2022-11-13T22:04:10.471Z,13.98
2022-11-13T22:06:42.452Z,14.88
2022-11-13T22:09:19.050Z,12.95
2022-11-13T22:11:48.310Z,13.13
2022-11-13T22:14:17.501Z,16.88
2022-11-13T22:16:49.061Z,11.25
2022-11-13T22:19:26.528Z,14.90
2022-11-13T22:21:56.908Z,15.55
2022-11-13T22:24:26.013Z,11.50
2022-11-13T22:26:55.054Z,10.43
2022-11-13T22:29:24.135Z,14.10
2022-11-13T22:31:53.170Z,8.18
2022-11-13T22:34:22.311Z,11.73
2022-11-13T22:36:51.763Z,13.88
2022-11-13T22:39:20.925Z,13.35
2022-11-13T22:41:49.944Z,21.10
2022-11-13T22:44:18.993Z,18.42
2022-11-13T22:46:48.170Z,16.67
2022-11-13T22:49:17.264Z,21.63
2022-11-13T22:51:46.336Z,35.58
2022-11-13T22:54:15.430Z,34.70
2022-11-13T22:56:44.583Z,30.63
2022-11-13T22:59:14.952Z,28.77
2022-11-13T23:01:44.665Z,30.23
2022-11-13T23:04:15.458Z,26.38
2022-11-13T23:06:44.645Z,26.55
2022-11-13T23:09:13.780Z,21.50
2022-11-13T23:11:44.912Z,24.25
2022-11-13T23:14:18.422Z,19.52
2022-11-13T23:16:47.553Z,18.02
2022-11-13T23:19:16.583Z,16.23
2022-11-13T23:21:48.156Z,19.75
2022-11-13T23:24:17.176Z,16.80
2022-11-13T23:26:46.299Z,17.40
2022-11-13T23:29:15.653Z,12.50
2022-11-13T23:31:44.698Z,13.85
2022-11-13T23:34:16.602Z,17.42
2022-11-13T23:36:56.181Z,17.02
2022-11-13T23:39:25.210Z,14.63
2022-11-13T23:41:54.239Z,22.15
2022-11-13T23:44:23.295Z,30.45
2022-11-13T23:46:52.357Z,20.13
2022-11-13T23:49:21.443Z,22.20
2022-11-13T23:51:50.561Z,20.25
2022-11-13T23:54:19.625Z,18.83
2022-11-13T23:56:48.658Z,18.20
2022-11-13T23:59:17.805Z,19.63
